TimeMDT,TemperatureF,Dew PointF,Humidity,Sea Level PressureIn,VisibilityMPH,Wind Direction,Wind SpeedMPH,Gust SpeedMPH,PrecipitationIn,Events,Conditions,WindDirDegrees,DateUTC
12:56 AM,23.0,14.0,68,30.23,10.0,Calm,Calm,-,N/A,,Clear,0,2012-10-04 06:56:00
1:56 AM,24.1,15.1,69,30.22,10.0,Calm,Calm,-,N/A,,Clear,0,2012-10-04 07:56:00
2:56 AM,21.0,13.1,71,30.21,10.0,Calm,Calm,-,N/A,,Clear,0,2012-10-04 08:56:00
3:56 AM,19.0,11.1,71,30.20,10.0,ENE,3.5,-,N/A,,Clear,70,2012-10-04 09:56:00
4:56 AM,23.0,14.0,68,30.17,10.0,Calm,Calm,-,N/A,,Clear,0,2012-10-04 10:56:00
5:56 AM,20.1,12.0,71,30.18,10.0,Calm,Calm,-,N/A,,Clear,0,2012-10-04 11:56:00
6:56 AM,22.1,13.1,68,30.20,10.0,ESE,5.8,-,N/A,,Clear,110,2012-10-04 12:56:00
7:56 AM,21.0,12.0,68,30.25,10.0,Calm,Calm,-,N/A,,Clear,0,2012-10-04 13:56:00
8:56 AM,31.1,15.1,52,30.22,10.0,Calm,Calm,-,N/A,,Clear,0,2012-10-04 14:56:00
9:56 AM,38.8,16.2,40,30.19,10.0,Calm,Calm,-,N/A,,Clear,0,2012-10-04 15:56:00
10:56 AM,43.9,14.0,30,30.16,10.0,South,4.6,-,N/A,,Clear,190,2012-10-04 16:56:00
11:56 AM,46.9,12.0,24,30.14,10.0,Calm,Calm,-,N/A,,Clear,0,2012-10-04 17:56:00
12:56 PM,48.9,14.0,25,30.13,10.0,West,3.5,-,N/A,,Clear,280,2012-10-04 18:56:00
1:56 PM,52.0,15.1,23,30.09,10.0,North,8.1,-,N/A,,Clear,350,2012-10-04 19:56:00
2:56 PM,52.9,13.1,21,30.08,10.0,NW,12.7,-,N/A,,Clear,320,2012-10-04 20:56:00
3:56 PM,50.9,13.1,22,30.09,10.0,North,6.9,-,N/A,,Partly Cloudy,360,2012-10-04 21:56:00
4:56 PM,50.0,14.0,24,30.08,10.0,North,11.5,-,N/A,,Scattered Clouds,360,2012-10-04 22:56:00
5:56 PM,47.8,13.1,25,30.11,10.0,NNW,6.9,-,N/A,,Scattered Clouds,340,2012-10-04 23:56:00
6:56 PM,45.9,15.1,29,30.11,10.0,North,5.8,-,N/A,,Partly Cloudy,10,2012-10-05 00:56:00
7:56 PM,43.9,16.2,33,30.12,10.0,NE,4.6,-,N/A,,Mostly Cloudy,50,2012-10-05 01:56:00
8:56 PM,41.0,16.2,37,30.10,10.0,NNE,6.9,-,N/A,,Partly Cloudy,20,2012-10-05 02:56:00
9:56 PM,36.9,18.1,47,30.09,10.0,Calm,Calm,-,N/A,,Clear,0,2012-10-05 03:56:00
10:56 PM,30.0,16.2,56,30.11,10.0,Calm,Calm,-,N/A,,Clear,0,2012-10-05 04:56:00
11:56 PM,32.0,17.1,54,30.09,10.0,WSW,3.5,-,N/A,,Scattered Clouds,250,2012-10-05 05:56:00